Time;durP1;ratioP1;P1;durP2;ratioP2;P2;SDS_P1;SDS_P2;PMS_P1;PMS_P2;Temp;Humidity;BMP_temperature;BMP_pressure;BME280_temperature;BME280_humidity;BME280_pressure;Samples;Min_cycle;Max_cycle;Signal;HPM_P1;HPM_P2
2023/07/29 00:00:27;;;;;;;;;7.00;7.00;;;;;22.17;100.00;100777.53;5056173;28;60146;-82
2023/07/29 00:02:53;;;;;;;;;8.33;8.33;;;;;22.16;100.00;100767.72;5046018;28;46678;-82
2023/07/29 00:05:18;;;;;;;;;8.33;8.33;;;;;22.14;100.00;100767.75;5057248;28;45319;-82
2023/07/29 00:07:43;;;;;;;;;15.00;14.67;;;;;22.12;100.00;100752.63;5056513;28;63162;-82
2023/07/29 00:10:09;;;;;;;;;10.67;8.33;;;;;22.10;100.00;100758.03;5055916;28;62907;-83
2023/07/29 00:12:34;;;;;;;;;9.67;8.33;;;;;22.07;100.00;100743.81;5057168;28;45548;-82
2023/07/29 00:15:00;;;;;;;;;13.67;13.67;;;;;22.05;100.00;100751.97;5051148;28;63780;-83
2023/07/29 00:17:25;;;;;;;;;32.00;31.00;;;;;22.01;100.00;100736.88;5056515;28;45422;-82
2023/07/29 00:19:51;;;;;;;;;9.00;9.00;;;;;21.97;100.00;100722.66;5055188;28;45423;-83
2023/07/29 00:22:16;;;;;;;;;9.33;9.33;;;;;21.93;100.00;100733.56;5056736;28;46926;-82
2023/07/29 00:24:41;;;;;;;;;17.67;16.67;;;;;21.90;100.00;100728.34;5047524;28;67228;-82
2023/07/29 00:27:07;;;;;;;;;16.33;16.33;;;;;21.85;100.00;100733.88;5051071;28;63119;-81
2023/07/29 00:29:32;;;;;;;;;19.67;18.67;;;;;21.81;100.00;100724.16;5057034;28;45445;-82
2023/07/29 00:31:57;;;;;;;;;12.67;10.67;;;;;21.80;100.00;100718.84;5045542;28;67746;-82
2023/07/29 00:34:23;;;;;;;;;13.00;11.67;;;;;21.79;100.00;100726.03;5056055;28;45427;-83
2023/07/29 00:36:48;;;;;;;;;8.00;7.33;;;;;21.81;100.00;100728.66;5056197;28;58713;-82
2023/07/29 00:39:13;;;;;;;;;5.00;4.00;;;;;21.83;100.00;100735.72;5055148;28;60962;-82
2023/07/29 00:41:39;;;;;;;;;3.67;2.00;;;;;21.86;100.00;100737.44;5054952;28;58965;-81
2023/07/29 00:44:05;;;;;;;;;2.67;2.67;;;;;21.89;100.00;100738.22;5055380;28;45323;-82
2023/07/29 00:46:33;;;;;;;;;2.33;2.00;;;;;21.88;100.00;100728.38;5055597;28;59945;-81
2023/07/29 00:48:58;;;;;;;;;2.00;2.00;;;;;21.92;100.00;100723.75;5055587;28;45631;-82
2023/07/29 00:51:23;;;;;;;;;2.00;2.00;;;;;21.93;100.00;100723.69;5055660;28;68344;-82
2023/07/29 00:53:49;;;;;;;;;2.00;2.00;;;;;21.96;100.00;100734.34;5052067;28;63785;-82
2023/07/29 00:56:14;;;;;;;;;2.00;2.00;;;;;21.99;100.00;100727.97;5055552;28;61903;-82
2023/07/29 00:58:39;;;;;;;;;3.33;2.00;;;;;22.00;100.00;100729.75;5056752;28;45469;-82
2023/07/29 01:01:05;;;;;;;;;3.33;2.00;;;;;21.99;100.00;100727.97;5054984;28;51104;-82
2023/07/29 01:03:30;;;;;;;;;1.00;1.00;;;;;22.01;100.00;100722.56;5049720;28;65946;-82
2023/07/29 01:06:08;;;;;;;;;2.67;2.67;;;;;22.01;100.00;100730.63;5054708;28;62362;-82
2023/07/29 01:09:02;;;;;;;;;1.33;1.33;;;;;22.01;100.00;100736.00;5055051;28;46179;-82
2023/07/29 01:12:06;;;;;;;;;1.00;1.00;;;;;22.01;100.00;100736.00;5053471;28;46538;-82
2023/07/29 01:14:37;;;;;;;;;1.33;1.33;;;;;22.00;100.00;100713.63;5031453;28;45553;-82
2023/07/29 01:17:04;;;;;;;;;1.00;1.00;;;;;22.00;100.00;100699.25;5055782;28;45303;-82
2023/07/29 01:19:56;;;;;;;;;1.00;1.00;;;;;21.98;100.00;100700.19;5055618;28;45382;-82
2023/07/29 01:22:21;;;;;;;;;1.00;1.00;;;;;21.93;100.00;100696.81;5055008;28;45928;-81
2023/07/29 01:24:46;;;;;;;;;1.00;1.00;;;;;21.89;100.00;100699.66;5053190;28;69217;-81
2023/07/29 01:27:12;;;;;;;;;1.00;1.00;;;;;21.86;100.00;100697.13;5053069;28;64949;-82
2023/07/29 01:29:37;;;;;;;;;0.67;0.67;;;;;21.84;100.00;100696.28;5053266;28;59990;-81
2023/07/29 01:32:17;;;;;;;;;1.00;1.00;;;;;21.81;100.00;100707.16;5058211;28;46345;-82
2023/07/29 01:34:58;;;;;;;;;1.00;1.00;;;;;21.77;100.00;100708.19;5048931;28;45335;-82
2023/07/29 01:37:27;;;;;;;;;0.00;0.00;;;;;21.71;100.00;100685.13;5059218;28;45408;-83
2023/07/29 01:39:56;;;;;;;;;2.00;0.00;;;;;21.70;100.00;100681.56;5075216;28;45526;-82
2023/07/29 01:42:23;;;;;;;;;1.00;1.00;;;;;21.69;100.00;100684.31;5040492;28;47287;-81
2023/07/29 01:44:48;;;;;;;;;1.00;1.00;;;;;21.66;100.00;100687.09;5057809;28;45246;-82
2023/07/29 01:47:13;;;;;;;;;1.00;1.00;;;;;21.64;100.00;100695.22;5058730;28;64335;-83
2023/07/29 01:49:39;;;;;;;;;1.00;1.00;;;;;21.60;100.00;100698.09;5058192;28;45409;-82
2023/07/29 01:52:04;;;;;;;;;1.00;1.00;;;;;21.58;100.00;100683.84;5059333;28;45376;-82
2023/07/29 01:54:30;;;;;;;;;1.00;1.00;;;;;21.55;100.00;100681.25;5057542;28;45550;-83
2023/07/29 01:56:55;;;;;;;;;0.00;0.00;;;;;21.56;100.00;100683.00;5059165;28;45477;-82
2023/07/29 01:59:20;;;;;;;;;1.00;1.00;;;;;21.55;100.00;100687.50;5057090;28;45517;-83
2023/07/29 02:01:46;;;;;;;;;3.00;1.00;;;;;21.54;100.00;100683.06;5058480;28;46949;-81
2023/07/29 02:04:11;;;;;;;;;1.00;1.00;;;;;21.53;100.00;100702.81;5055099;28;45423;-84
2023/07/29 02:06:37;;;;;;;;;0.33;0.33;;;;;21.53;100.00;100712.69;5042014;28;45400;-81
2023/07/29 02:09:04;;;;;;;;;1.33;1.33;;;;;21.51;100.00;100717.22;5051147;28;45265;-83
2023/07/29 02:11:29;;;;;;;;;3.00;1.00;;;;;21.50;100.00;100710.97;5058668;28;45387;-82
2023/07/29 02:13:55;;;;;;;;;1.00;1.00;;;;;21.51;100.00;100690.34;5058961;28;45193;-81
2023/07/29 02:16:22;;;;;;;;;0.00;0.00;;;;;21.50;100.00;100684.09;5057841;28;45256;-82
2023/07/29 02:18:47;;;;;;;;;0.33;0.33;;;;;21.44;100.00;100679.84;5058725;28;45307;-81
2023/07/29 02:21:13;;;;;;;;;0.00;0.00;;;;;21.42;100.00;100680.84;5058328;28;47034;-82
2023/07/29 02:23:38;;;;;;;;;1.00;1.00;;;;;21.41;100.00;100677.28;5057550;28;67828;-83
2023/07/29 02:26:04;;;;;;;;;0.00;0.00;;;;;21.38;100.00;100672.00;5057628;28;61732;-82
2023/07/29 02:28:29;;;;;;;;;0.33;0.33;;;;;21.35;100.00;100680.16;5057894;28;45445;-82
2023/07/29 02:31:13;;;;;;;;;0.00;0.00;;;;;21.29;100.00;100672.28;5058267;28;45450;-81
2023/07/29 02:33:38;;;;;;;;;1.00;1.00;;;;;21.25;100.00;100689.44;5058761;28;45506;-82
2023/07/29 02:36:05;;;;;;;;;0.00;0.00;;;;;21.21;100.00;100686.94;5057580;28;63668;-82
2023/07/29 02:38:30;;;;;;;;;0.00;0.00;;;;;21.17;100.00;100689.72;5058729;28;45619;-82
2023/07/29 02:40:55;;;;;;;;;2.00;0.33;;;;;21.13;100.00;100685.38;5057941;28;45391;-82
2023/07/29 02:43:20;;;;;;;;;0.00;0.00;;;;;21.10;100.00;100695.38;5056644;28;58582;-81
2023/07/29 02:45:46;;;;;;;;;0.33;0.33;;;;;21.07;100.00;100696.34;5058572;28;45292;-81
2023/07/29 02:48:11;;;;;;;;;1.00;1.00;;;;;21.03;100.00;100689.31;5058517;28;45566;-82
2023/07/29 02:50:37;;;;;;;;;0.00;0.00;;;;;20.99;100.00;100685.00;5056940;28;52633;-82
2023/07/29 02:53:02;;;;;;;;;0.67;0.67;;;;;20.97;100.00;100697.59;5057013;28;68606;-82
2023/07/29 02:55:27;;;;;;;;;0.00;0.00;;;;;20.95;100.00;100698.56;5057565;28;45937;-83
2023/07/29 02:57:53;;;;;;;;;0.00;0.00;;;;;20.89;100.00;100703.22;5057614;28;59498;-82
2023/07/29 03:00:18;;;;;;;;;0.67;0.00;;;;;20.88;100.00;100704.16;5054121;28;69408;-82
2023/07/29 03:02:43;;;;;;;;;0.00;0.00;;;;;20.87;100.00;100697.00;5053800;28;45406;-82
2023/07/29 03:05:09;;;;;;;;;0.00;0.00;;;;;20.82;100.00;100701.66;5056709;28;47906;-82
2023/07/29 03:07:34;;;;;;;;;0.00;0.00;;;;;20.82;100.00;100720.44;5056675;28;49509;-82
2023/07/29 03:09:59;;;;;;;;;0.00;0.00;;;;;20.82;100.00;100724.94;5057501;28;66877;-82
2023/07/29 03:12:25;;;;;;;;;2.00;1.00;;;;;20.82;100.00;100731.16;5057571;28;66819;-81
2023/07/29 03:14:50;;;;;;;;;3.00;0.00;;;;;20.82;100.00;100725.81;5048408;28;45746;-81
2023/07/29 03:17:15;;;;;;;;;0.00;0.00;;;;;20.83;100.00;100730.28;5057336;28;54339;-82
2023/07/29 03:19:40;;;;;;;;;0.00;0.00;;;;;20.83;100.00;100732.94;5049396;28;45228;-82
2023/07/29 03:22:06;;;;;;;;;0.00;0.00;;;;;20.82;100.00;100735.66;5055242;28;66481;-82
2023/07/29 03:24:32;;;;;;;;;0.00;0.00;;;;;20.79;100.00;100731.28;5057909;28;45223;-82
2023/07/29 03:26:57;;;;;;;;;0.33;0.33;;;;;20.78;100.00;100732.22;5057727;28;45634;-82
2023/07/29 03:29:23;;;;;;;;;1.33;0.00;;;;;20.77;100.00;100740.31;5057901;28;48163;-82
2023/07/29 03:31:48;;;;;;;;;0.33;0.33;;;;;20.76;100.00;100742.13;5053967;28;51977;-82
2023/07/29 03:34:13;;;;;;;;;0.00;0.00;;;;;20.76;100.00;100741.25;5057555;28;59057;-81
2023/07/29 03:36:39;;;;;;;;;0.33;0.33;;;;;20.74;100.00;100751.16;5056547;28;45470;-82
2023/07/29 03:39:04;;;;;;;;;0.00;0.00;;;;;20.73;100.00;100757.47;5024455;28;47549;-82
2023/07/29 03:41:29;;;;;;;;;0.00;0.00;;;;;20.70;100.00;100754.84;5050583;28;67689;-83
2023/07/29 03:43:55;;;;;;;;;0.33;0.33;;;;;20.65;100.00;100746.94;5054928;28;45383;-81
2023/07/29 03:46:22;;;;;;;;;0.00;0.00;;;;;20.63;100.00;100746.13;5056947;28;59693;-82
2023/07/29 03:48:47;;;;;;;;;0.00;0.00;;;;;20.60;100.00;100743.53;5056992;28;46232;-81
2023/07/29 03:51:13;;;;;;;;;0.00;0.00;;;;;20.57;100.00;100746.34;5055493;28;45402;-82
2023/07/29 03:53:38;;;;;;;;;0.33;0.33;;;;;20.56;100.00;100749.91;5056572;28;59640;-82
2023/07/29 03:56:04;;;;;;;;;0.00;0.00;;;;;20.53;100.00;100756.28;5057606;28;46141;-81
2023/07/29 03:58:29;;;;;;;;;1.00;1.00;;;;;20.51;100.00;100757.25;5057339;28;45316;-81
2023/07/29 04:00:54;;;;;;;;;2.00;1.00;;;;;20.48;100.00;100747.50;5057436;28;45204;-82
2023/07/29 04:03:20;;;;;;;;;1.00;1.00;;;;;20.48;100.00;100743.94;5052556;28;63535;-82
2023/07/29 04:05:45;;;;;;;;;1.00;1.00;;;;;20.48;100.00;100738.56;5050154;28;58643;-82
2023/07/29 04:08:10;;;;;;;;;1.00;1.00;;;;;20.45;100.00;100743.97;5056031;28;67186;-81
2023/07/29 04:10:37;;;;;;;;;0.33;0.33;;;;;20.45;100.00;100749.34;5054279;28;45281;-81
2023/07/29 04:13:03;;;;;;;;;1.00;1.00;;;;;20.44;100.00;100755.63;5057148;28;45363;-81
2023/07/29 04:15:28;;;;;;;;;1.00;1.00;;;;;20.42;100.00;100758.38;5047452;28;45148;-82
2023/07/29 04:17:53;;;;;;;;;0.67;0.67;;;;;20.40;100.00;100752.19;5055240;28;47223;-82
2023/07/29 04:20:19;;;;;;;;;1.00;1.00;;;;;20.38;100.00;100756.72;5055541;28;68733;-82
2023/07/29 04:22:44;;;;;;;;;1.00;1.00;;;;;20.35;100.00;100752.34;5056714;28;46648;-82
2023/07/29 04:25:09;;;;;;;;;2.00;2.00;;;;;20.36;100.00;100747.84;5056009;28;59956;-83
2023/07/29 04:27:35;;;;;;;;;1.00;1.00;;;;;20.34;100.00;100753.22;5056741;28;45410;-82
2023/07/29 04:30:00;;;;;;;;;1.67;1.67;;;;;20.34;100.00;100760.41;5055541;28;66331;-82
2023/07/29 04:32:25;;;;;;;;;1.00;1.00;;;;;20.33;100.00;100764.88;5056216;28;59256;-82
2023/07/29 04:34:51;;;;;;;;;1.33;1.33;;;;;20.32;100.00;100773.00;5057061;28;45286;-82
2023/07/29 04:37:16;;;;;;;;;1.00;1.00;;;;;20.33;100.00;100770.25;5055049;28;68393;-82
2023/07/29 04:39:41;;;;;;;;;4.00;2.00;;;;;20.33;100.00;100761.34;5056093;28;65670;-82
2023/07/29 04:42:07;;;;;;;;;1.00;1.00;;;;;20.33;100.00;100754.16;5055577;28;64059;-82
2023/07/29 04:44:32;;;;;;;;;1.67;1.00;;;;;20.33;100.00;100770.25;5056092;28;62957;-82
2023/07/29 04:46:57;;;;;;;;;2.00;0.67;;;;;20.33;100.00;100764.00;5055371;28;68584;-82
2023/07/29 04:49:22;;;;;;;;;1.67;1.67;;;;;20.33;100.00;100766.69;5055766;28;65811;-82
2023/07/29 04:51:48;;;;;;;;;0.00;0.00;;;;;20.31;100.00;100769.44;5046404;28;60757;-82
2023/07/29 04:54:13;;;;;;;;;1.00;1.00;;;;;20.32;100.00;100759.59;5055400;28;45515;-82
2023/07/29 04:56:38;;;;;;;;;1.00;1.00;;;;;20.32;100.00;100756.91;5056265;28;47129;-82
2023/07/29 04:59:04;;;;;;;;;1.33;1.33;;;;;20.32;100.00;100760.47;5055697;28;63936;-82
2023/07/29 05:01:29;;;;;;;;;2.00;2.00;;;;;20.32;100.00;100763.13;5056259;28;45188;-82
2023/07/29 05:03:55;;;;;;;;;3.00;1.00;;;;;20.33;100.00;100764.88;5055058;28;61535;-81
2023/07/29 05:06:20;;;;;;;;;0.67;0.67;;;;;20.33;100.00;100762.22;5043578;28;69035;-81
2023/07/29 05:08:45;;;;;;;;;1.00;1.00;;;;;20.37;100.00;100769.25;5056669;28;45178;-82
2023/07/29 05:11:11;;;;;;;;;0.67;0.67;;;;;20.39;100.00;100778.09;5052414;28;45271;-82
2023/07/29 05:13:36;;;;;;;;;1.00;1.00;;;;;20.41;100.00;100770.03;5053468;28;60613;-83
2023/07/29 05:16:01;;;;;;;;;1.00;1.00;;;;;20.44;100.00;100766.38;5036074;28;47251;-82
2023/07/29 05:21:01;;;;;;;;;1.00;1.00;;;;;20.41;100.00;100773.59;5014956;28;45404;-82
2023/07/29 05:23:26;;;;;;;;;0.67;0.67;;;;;20.44;100.00;100772.59;5014987;28;57364;-83
2023/07/29 05:25:52;;;;;;;;;0.67;0.67;;;;;20.43;100.00;100770.84;5016088;28;46737;-84
2023/07/29 05:28:17;;;;;;;;;0.67;0.67;;;;;20.42;100.00;100782.50;5014631;28;55900;-82
2023/07/29 05:30:43;;;;;;;;;1.00;1.00;;;;;20.39;100.00;100775.44;4981291;28;59417;-83
2023/07/29 05:33:09;;;;;;;;;1.00;1.00;;;;;20.40;100.00;100776.34;5016325;28;45156;-83
2023/07/29 05:35:34;;;;;;;;;1.00;1.00;;;;;20.40;100.00;100770.97;5014536;28;69122;-83
2023/07/29 05:37:59;;;;;;;;;0.67;0.67;;;;;20.41;100.00;100767.34;5016043;28;45256;-83
2023/07/29 05:40:25;;;;;;;;;1.00;1.00;;;;;20.41;100.00;100772.72;4996999;28;66769;-82
2023/07/29 05:42:50;;;;;;;;;0.67;0.67;;;;;20.39;100.00;100767.38;5006791;28;54947;-83
2023/07/29 05:45:15;;;;;;;;;0.33;0.33;;;;;20.42;100.00;100769.97;5025730;28;69193;-82
2023/07/29 05:47:41;;;;;;;;;1.33;1.00;;;;;20.46;100.00;100784.22;4997425;28;64395;-83
2023/07/29 05:50:07;;;;;;;;;0.00;0.00;;;;;20.46;100.00;100780.63;5015965;28;45504;-83
2023/07/29 05:52:32;;;;;;;;;1.00;1.00;;;;;20.48;100.00;100773.44;4992855;28;45413;-82
2023/07/29 05:54:58;;;;;;;;;1.00;1.00;;;;;20.48;100.00;100770.75;5011838;28;46300;-83
2023/07/29 05:57:23;;;;;;;;;1.00;1.00;;;;;20.51;100.00;100768.00;5011909;28;64336;-83
2023/07/29 05:59:48;;;;;;;;;0.00;0.00;;;;;20.53;100.00;100768.81;4994438;28;45366;-83
2023/07/29 06:02:14;;;;;;;;;1.00;1.00;;;;;20.53;100.00;100772.38;4996450;28;57187;-83
2023/07/29 06:04:39;;;;;;;;;1.00;1.00;;;;;20.58;100.00;100774.91;4980151;28;60813;-83
2023/07/29 06:07:05;;;;;;;;;2.00;0.00;;;;;20.61;100.00;100773.03;5015855;28;45448;-83
2023/07/29 06:09:31;;;;;;;;;2.00;0.67;;;;;20.67;100.00;100767.47;5015559;28;45275;-84
2023/07/29 06:11:56;;;;;;;;;0.00;0.00;;;;;20.77;100.00;100769.81;4997424;28;55764;-83
2023/07/29 06:14:21;;;;;;;;;1.00;1.00;;;;;20.82;100.00;100773.25;5015242;28;45748;-85
2023/07/29 06:16:47;;;;;;;;;2.33;1.00;;;;;20.83;100.00;100769.66;5001197;28;46782;-83
2023/07/29 06:19:13;;;;;;;;;0.67;0.67;;;;;20.86;100.00;100782.94;5017642;28;60925;-82
2023/07/29 06:21:38;;;;;;;;;0.00;0.00;;;;;20.84;100.00;100782.13;5018667;28;45495;-82
2023/07/29 06:24:04;;;;;;;;;0.00;0.00;;;;;20.83;100.00;100781.25;5017759;28;68717;-83
2023/07/29 06:26:29;;;;;;;;;0.00;0.00;;;;;20.85;100.00;100789.25;5018519;28;45465;-83
2023/07/29 06:28:54;;;;;;;;;0.33;0.33;;;;;20.83;100.00;100791.13;5018022;28;62613;-83
2023/07/29 06:31:20;;;;;;;;;0.33;0.33;;;;;20.81;100.00;100785.78;5019111;28;45420;-82
2023/07/29 06:33:45;;;;;;;;;0.00;0.00;;;;;20.84;100.00;100787.50;5018103;28;46117;-82
2023/07/29 06:36:11;;;;;;;;;0.33;0.33;;;;;20.85;100.00;100787.44;5018035;28;67419;-82
2023/07/29 06:38:38;;;;;;;;;0.00;0.00;;;;;20.83;100.00;100789.31;5000203;28;45476;-82
2023/07/29 06:41:04;;;;;;;;;0.00;0.00;;;;;20.82;100.00;100790.22;5001416;28;45360;-81
2023/07/29 06:43:29;;;;;;;;;0.00;0.00;;;;;20.85;100.00;100800.00;5000319;28;46240;-82
2023/07/29 06:45:55;;;;;;;;;0.00;0.00;;;;;20.85;100.00;100794.63;5017623;28;64331;-82
2023/07/29 06:48:20;;;;;;;;;0.00;0.00;;;;;20.87;100.00;100782.91;5033680;28;45507;-83
2023/07/29 06:50:46;;;;;;;;;0.00;0.00;;;;;20.85;100.00;100790.13;5000058;28;45289;-82
2023/07/29 06:53:11;;;;;;;;;0.00;0.00;;;;;20.87;100.00;100795.44;5017343;28;70066;-83
2023/07/29 06:55:37;;;;;;;;;0.00;0.00;;;;;20.92;100.00;100798.84;5000331;28;45576;-83
2023/07/29 06:58:02;;;;;;;;;0.00;0.00;;;;;20.90;100.00;100790.88;5000613;28;45463;-83
2023/07/29 07:00:28;;;;;;;;;0.00;0.00;;;;;20.93;100.00;100798.81;5017793;28;58894;-83
2023/07/29 07:02:53;;;;;;;;;0.00;0.00;;;;;21.03;100.00;100793.13;5016619;28;69413;-82
2023/07/29 07:05:18;;;;;;;;;0.00;0.00;;;;;21.03;100.00;100788.66;5018218;28;45261;-83
2023/07/29 07:07:44;;;;;;;;;0.00;0.00;;;;;21.18;100.00;100801.56;5001058;28;61347;-83
2023/07/29 07:10:09;;;;;;;;;0.00;0.00;;;;;21.25;100.00;100807.59;5017078;28;45366;-83
2023/07/29 07:12:34;;;;;;;;;0.00;0.00;;;;;21.31;100.00;100803.91;5017179;28;48306;-83
2023/07/29 07:15:00;;;;;;;;;1.00;0.00;;;;;21.43;100.00;100822.28;4999508;28;67662;-85
2023/07/29 07:17:25;;;;;;;;;2.00;0.00;;;;;21.51;100.00;100808.56;4999896;28;45524;-84
2023/07/29 07:19:51;;;;;;;;;0.00;0.00;;;;;21.57;100.00;100800.28;5018243;28;50715;-82
2023/07/29 07:22:16;;;;;;;;;0.00;0.00;;;;;21.62;100.00;100809.94;5018292;28;52525;-82
2023/07/29 07:24:41;;;;;;;;;0.00;0.00;;;;;21.67;100.00;100818.72;5004642;28;61199;-83
2023/07/29 07:27:07;;;;;;;;;0.00;0.00;;;;;21.66;100.00;100808.03;5016968;28;48763;-81
2023/07/29 07:29:32;;;;;;;;;0.00;0.00;;;;;21.69;100.00;100810.63;5017255;28;60416;-83
2023/07/29 07:31:58;;;;;;;;;1.00;0.00;;;;;21.74;100.00;100816.72;5016361;28;69393;-83
2023/07/29 07:34:23;;;;;;;;;0.00;0.00;;;;;21.78;100.00;100814.78;5017976;28;45353;-83
2023/07/29 07:36:49;;;;;;;;;0.00;0.00;;;;;21.81;100.00;100820.06;5017378;28;45421;-84
2023/07/29 07:39:15;;;;;;;;;0.00;0.00;;;;;21.84;100.00;100815.47;5017258;28;57765;-82
2023/07/29 07:41:41;;;;;;;;;0.00;0.00;;;;;21.90;100.00;100806.28;5031649;28;46783;-82
2023/07/29 07:44:06;;;;;;;;;0.00;0.00;;;;;21.93;100.00;100804.34;4986848;28;45323;-84
2023/07/29 07:46:32;;;;;;;;;0.00;0.00;;;;;21.96;100.00;100798.88;5006088;28;48278;-82
2023/07/29 07:48:57;;;;;;;;;0.00;0.00;;;;;21.96;100.00;100793.50;5014113;28;45521;-82
2023/07/29 07:51:22;;;;;;;;;0.00;0.00;;;;;21.97;100.00;100795.25;4991786;28;66861;-83
2023/07/29 07:53:48;;;;;;;;;0.00;0.00;;;;;22.06;100.00;100818.25;5007609;28;67728;-83
2023/07/29 07:56:13;;;;;;;;;0.00;0.00;;;;;22.12;100.00;100814.47;4999027;28;67734;-83
2023/07/29 07:58:39;;;;;;;;;0.00;0.00;;;;;22.14;100.00;100808.09;5017571;28;45368;-82
2023/07/29 08:01:06;;;;;;;;;0.00;0.00;;;;;22.17;100.00;100805.31;5016783;28;47239;-83
2023/07/29 08:03:31;;;;;;;;;0.00;0.00;;;;;22.20;100.00;100798.91;5012842;28;45290;-84
2023/07/29 08:05:56;;;;;;;;;1.00;1.00;;;;;22.20;100.00;100802.47;5016668;28;45190;-83
2023/07/29 08:08:22;;;;;;;;;2.00;0.00;;;;;22.24;100.00;100814.03;5017875;28;45359;-83
2023/07/29 08:10:47;;;;;;;;;0.00;0.00;;;;;22.34;100.00;100801.09;5016807;28;46400;-82
2023/07/29 08:13:12;;;;;;;;;0.00;0.00;;;;;22.47;100.00;100813.13;5016924;28;45422;-84
2023/07/29 08:15:38;;;;;;;;;0.00;0.00;;;;;22.60;100.00;100814.44;4998668;28;53331;-83
2023/07/29 08:18:03;;;;;;;;;0.00;0.00;;;;;22.70;100.00;100812.25;4998766;28;58502;-83
2023/07/29 08:20:28;;;;;;;;;1.00;1.00;;;;;22.80;100.00;100808.25;5015756;28;68259;-82
2023/07/29 08:22:54;;;;;;;;;0.00;0.00;;;;;22.91;100.00;100813.25;5017138;28;45315;-82
2023/07/29 08:25:19;;;;;;;;;0.00;0.00;;;;;22.91;100.00;100808.75;5015855;28;65532;-83
2023/07/29 08:27:44;;;;;;;;;1.00;1.00;;;;;22.91;100.00;100806.06;5017033;28;45358;-83
2023/07/29 08:30:10;;;;;;;;;0.00;0.00;;;;;22.96;100.00;100812.13;5015648;28;68276;-84
2023/07/29 08:32:36;;;;;;;;;0.00;0.00;;;;;23.02;100.00;100807.44;5016628;28;45455;-83
2023/07/29 08:35:01;;;;;;;;;3.00;0.00;;;;;23.10;100.00;100803.47;5016700;28;45341;-83
2023/07/29 08:37:27;;;;;;;;;0.00;0.00;;;;;23.17;100.00;100802.28;5015994;28;57224;-82
2023/07/29 08:39:53;;;;;;;;;2.00;1.00;;;;;23.21;100.00;100789.53;5016691;28;46313;-83
2023/07/29 08:42:19;;;;;;;;;0.00;0.00;;;;;23.15;100.00;100784.41;5019520;28;45382;-84
2023/07/29 08:44:45;;;;;;;;;0.00;0.00;;;;;23.10;100.00;100800.78;5031518;28;63881;-83
2023/07/29 08:47:13;;;;;;;;;0.00;0.00;;;;;23.07;100.00;100795.53;4996111;28;45599;-83
2023/07/29 08:49:38;;;;;;;;;0.00;0.00;;;;;23.19;100.00;100784.22;5008428;28;46352;-84
2023/07/29 08:52:04;;;;;;;;;0.00;0.00;;;;;23.34;100.00;100781.84;4998149;28;45366;-84
2023/07/29 08:54:30;;;;;;;;;0.00;0.00;;;;;23.49;100.00;100784.75;4999068;28;45400;-82
2023/07/29 08:56:55;;;;;;;;;0.00;0.00;;;;;23.49;100.00;100773.97;5016384;28;47621;-84
2023/07/29 08:59:21;;;;;;;;;0.00;0.00;;;;;23.43;100.00;100767.94;4981488;28;45795;-83
2023/07/29 09:01:47;;;;;;;;;1.00;0.00;;;;;23.42;100.00;100763.50;4997450;28;66689;-83
2023/07/29 09:04:12;;;;;;;;;0.00;0.00;;;;;23.43;100.00;100760.72;4997939;28;45323;-83
2023/07/29 09:06:39;;;;;;;;;0.00;0.00;;;;;23.48;100.00;100765.94;5015639;28;60858;-82
2023/07/29 09:09:05;;;;;;;;;0.00;0.00;;;;;23.49;100.00;100763.19;5002306;28;46130;-84
2023/07/29 09:11:30;;;;;;;;;0.00;0.00;;;;;23.59;100.00;100766.34;5015191;28;45463;-83
2023/07/29 09:13:56;;;;;;;;;0.00;0.00;;;;;23.70;100.00;100765.88;5016035;28;45219;-84
2023/07/29 09:16:22;;;;;;;;;2.00;0.00;;;;;23.81;100.00;100760.03;5015249;28;45442;-83
2023/07/29 09:18:50;;;;;;;;;0.00;0.00;;;;;23.92;100.00;100758.63;4989567;28;46175;-82
2023/07/29 09:21:17;;;;;;;;;1.00;1.00;;;;;24.01;100.00;100747.38;5015599;28;45456;-83
2023/07/29 09:23:43;;;;;;;;;0.00;0.00;;;;;24.16;100.00;100751.19;5015952;28;45254;-83
2023/07/29 09:26:08;;;;;;;;;0.00;0.00;;;;;24.28;100.00;100741.66;4990343;28;45160;-83
2023/07/29 09:28:35;;;;;;;;;0.00;0.00;;;;;24.36;100.00;100738.63;5014843;28;68834;-83
2023/07/29 09:31:01;;;;;;;;;1.00;0.00;;;;;24.39;100.00;100742.03;4981841;28;45275;-83
2023/07/29 09:33:28;;;;;;;;;0.00;0.00;;;;;24.37;100.00;100743.06;4998376;28;45399;-85
2023/07/29 09:35:53;;;;;;;;;0.00;0.00;;;;;24.35;100.00;100740.47;4982277;28;45600;-84
2023/07/29 09:38:29;;;;;;;;;0.00;0.00;;;;;24.41;100.00;100748.25;4997187;28;71160;-83
2023/07/29 09:40:58;;;;;;;;;1.00;1.00;;;;;24.51;100.00;100743.31;5004785;28;45425;-84
2023/07/29 09:43:30;;;;;;;;;1.00;1.00;;;;;24.58;100.00;100747.44;5018113;28;45304;-84
2023/07/29 09:46:00;;;;;;;;;1.00;1.00;;;;;24.63;100.00;100752.63;4998078;28;45619;-86
2023/07/29 09:48:25;;;;;;;;;0.00;0.00;;;;;24.68;100.00;100748.75;5010852;28;48170;-84
2023/07/29 09:50:50;;;;;;;;;0.00;0.00;;;;;24.69;100.00;100744.22;5017814;28;45297;-85
2023/07/29 09:53:16;;;;;;;;;1.00;1.00;;;;;24.61;100.00;100746.41;5019056;28;53281;-85
2023/07/29 09:55:48;;;;;;;;;1.00;1.00;;;;;24.48;100.00;100741.59;4983863;28;57464;-85
2023/07/29 09:58:13;;;;;;;;;0.00;0.00;;;;;24.43;100.00;100738.25;5019018;28;45752;-85
2023/07/29 10:00:39;;;;;;;;;0.67;0.67;;;;;24.50;100.00;100736.13;5016801;28;68246;-85
2023/07/29 10:03:06;;;;;;;;;1.00;1.00;;;;;24.66;100.00;100752.47;5015030;28;45452;-84
2023/07/29 10:05:34;;;;;;;;;1.00;1.00;;;;;24.79;100.00;100740.13;5001369;28;45332;-84
2023/07/29 10:08:00;;;;;;;;;0.33;0.33;;;;;24.91;100.00;100744.91;4985647;28;47739;-85
2023/07/29 10:10:25;;;;;;;;;0.67;0.67;;;;;25.01;100.00;100738.09;5001150;28;47795;-85
2023/07/29 10:12:52;;;;;;;;;1.00;1.00;;;;;25.06;100.00;100736.06;4999920;28;63948;-85
2023/07/29 10:15:17;;;;;;;;;0.00;0.00;;;;;25.11;100.00;100729.56;5001017;28;45301;-84
2023/07/29 10:17:42;;;;;;;;;0.33;0.33;;;;;25.14;100.00;100729.38;4995800;28;70173;-85
2023/07/29 10:20:09;;;;;;;;;0.00;0.00;;;;;25.17;100.00;100734.66;4988920;28;45252;-84
2023/07/29 10:22:42;;;;;;;;;2.33;1.00;;;;;25.19;100.00;100739.00;5011066;28;45245;-85
2023/07/29 10:25:10;;;;;;;;;1.00;1.00;;;;;25.16;100.00;100731.06;5018544;28;45231;-85
2023/07/29 10:27:43;;;;;;;;;1.33;1.33;;;;;25.07;100.00;100727.00;5026622;28;46238;-84
2023/07/29 10:30:11;;;;;;;;;1.00;1.00;;;;;24.95;100.00;100733.00;5000805;28;45397;-84
2023/07/29 10:32:36;;;;;;;;;2.00;2.00;;;;;24.90;100.00;100745.88;5000851;28;45387;-85
2023/07/29 10:35:02;;;;;;;;;1.67;1.67;;;;;24.85;100.00;100736.25;5027867;28;52661;-84
2023/07/29 10:37:27;;;;;;;;;1.00;1.00;;;;;24.87;100.00;100742.44;4980967;28;48591;-84
2023/07/29 10:39:54;;;;;;;;;1.00;1.00;;;;;24.86;100.00;100736.16;5013069;28;48640;-85
2023/07/29 10:42:19;;;;;;;;;1.67;1.67;;;;;24.83;100.00;100744.44;5000754;28;45411;-84
2023/07/29 10:44:49;;;;;;;;;1.00;1.00;;;;;24.77;100.00;100747.44;5033640;28;45577;-84
2023/07/29 10:47:18;;;;;;;;;1.00;1.00;;;;;24.66;100.00;100739.88;5018204;28;46912;-85
2023/07/29 10:49:45;;;;;;;;;1.33;1.33;;;;;24.55;100.00;100734.97;5000442;28;45402;-84
2023/07/29 10:52:15;;;;;;;;;2.00;1.00;;;;;24.49;100.00;100737.09;5017671;28;45444;-85
2023/07/29 10:54:44;;;;;;;;;1.67;1.00;;;;;24.44;100.00;100742.69;4984680;28;45252;-85
2023/07/29 10:57:14;;;;;;;;;0.67;0.67;;;;;24.46;100.00;100739.94;4980467;28;48540;-84
2023/07/29 10:59:40;;;;;;;;;1.00;1.00;;;;;24.47;100.00;100739.88;5012853;28;45325;-84
2023/07/29 11:02:16;;;;;;;;;0.67;0.67;;;;;24.55;100.00;100731.38;5017651;28;45451;-84
2023/07/29 11:04:50;;;;;;;;;2.00;2.00;;;;;24.69;100.00;100739.69;5016806;28;45513;-85
2023/07/29 11:07:15;;;;;;;;;1.00;1.00;;;;;24.85;100.00;100734.41;5007666;28;48592;-85
2023/07/29 11:09:45;;;;;;;;;1.00;1.00;;;;;24.94;100.00;100727.69;5018072;28;45438;-84
2023/07/29 11:12:39;;;;;;;;;1.00;1.00;;;;;24.95;100.00;100730.31;4998079;28;45552;-85
2023/07/29 11:15:15;;;;;;;;;2.33;1.00;;;;;24.93;100.00;100725.91;5011385;28;45441;-85